Time;durP1;ratioP1;P1;durP2;ratioP2;P2;SDS_P1;SDS_P2;PMS_P1;PMS_P2;Temp;Humidity;BMP_temperature;BMP_pressure;BME280_temperature;BME280_humidity;BME280_pressure;Samples;Min_cycle;Max_cycle;Signal;HPM_P1;HPM_P2
2021/07/21 00:00:40;;;;;;;7.97;4.13;;;;;;;;;;5053041;28;20028;-69
2021/07/21 00:03:05;;;;;;;11.40;4.03;;;;;;;;;;5052823;28;20033;-69
2021/07/21 00:05:32;;;;;;;9.27;4.22;;;;;;;;;;5057547;28;20065;-69
2021/07/21 00:07:58;;;;;;;8.40;4.13;;;;;;;;;;5055232;28;20380;-69
2021/07/21 00:10:26;;;;;;;12.15;4.20;;;;;;;;;;5051371;28;20032;-69
2021/07/21 00:15:39;;;;;;;6.40;3.75;;;;;;;;;;5057833;28;20048;-69
2021/07/21 00:18:17;;;;;;;7.50;4.20;;;;;;;;;;5056662;28;20033;-69
2021/07/21 00:20:45;;;;;;;7.75;3.60;;;;;;;;;;5052178;28;20029;-69
2021/07/21 00:23:11;;;;;;;7.53;3.92;;;;;;;;;;5051978;28;20036;-69
2021/07/21 00:25:43;;;;;;;7.55;4.47;;;;;;;;;;5052171;28;20465;-69
2021/07/21 00:28:09;;;;;;;6.05;3.72;;;;;;;;;;5070496;28;20032;-69
2021/07/21 00:30:34;;;;;;;5.65;3.72;;;;;;;;;;5072565;28;20103;-69
2021/07/21 00:33:00;;;;;;;6.35;3.78;;;;;;;;;;5052541;28;20043;-69
2021/07/21 00:35:25;;;;;;;6.40;3.63;;;;;;;;;;5052527;28;20052;-69
2021/07/21 00:37:53;;;;;;;4.70;3.13;;;;;;;;;;5060503;28;20032;-69
2021/07/21 00:40:19;;;;;;;5.72;3.17;;;;;;;;;;5092765;28;20019;-69
2021/07/21 00:42:45;;;;;;;6.97;3.47;;;;;;;;;;5092016;28;20046;-69
2021/07/21 00:45:11;;;;;;;6.07;3.58;;;;;;;;;;5076679;28;20020;-69
2021/07/21 00:47:38;;;;;;;5.80;3.10;;;;;;;;;;5058467;28;20032;-70
2021/07/21 00:50:05;;;;;;;7.53;4.18;;;;;;;;;;5052016;28;20049;-70
2021/07/21 00:52:36;;;;;;;5.50;3.42;;;;;;;;;;5051648;28;20124;-69
2021/07/21 00:55:05;;;;;;;5.55;3.50;;;;;;;;;;5051759;28;20051;-69
2021/07/21 00:57:31;;;;;;;7.10;3.65;;;;;;;;;;5052786;28;20071;-69
2021/07/21 00:59:57;;;;;;;5.43;3.15;;;;;;;;;;5050710;28;20028;-70
2021/07/21 01:02:25;;;;;;;6.60;3.95;;;;;;;;;;5051548;28;20029;-69
2021/07/21 01:04:51;;;;;;;9.80;4.22;;;;;;;;;;5058562;28;20032;-69
2021/07/21 01:07:17;;;;;;;6.50;3.33;;;;;;;;;;5066577;28;20052;-69
2021/07/21 01:09:45;;;;;;;7.93;3.53;;;;;;;;;;5071710;28;20075;-69
2021/07/21 01:12:35;;;;;;;5.80;3.72;;;;;;;;;;5071164;28;20096;-69
2021/07/21 01:15:09;;;;;;;6.50;3.85;;;;;;;;;;5072144;28;20025;-69
2021/07/21 01:17:47;;;;;;;7.32;4.43;;;;;;;;;;5078605;28;20478;-69
2021/07/21 01:20:41;;;;;;;6.03;3.70;;;;;;;;;;5072144;28;20104;-69
2021/07/21 01:23:24;;;;;;;6.85;3.90;;;;;;;;;;5071657;28;20058;-69
2021/07/21 01:25:57;;;;;;;5.88;3.38;;;;;;;;;;5057824;28;20106;-69
2021/07/21 01:28:27;;;;;;;6.95;3.95;;;;;;;;;;5052402;28;20227;-69
2021/07/21 01:30:55;;;;;;;7.47;3.85;;;;;;;;;;5052048;28;20028;-69
2021/07/21 01:33:21;;;;;;;7.38;3.42;;;;;;;;;;5062810;28;20117;-69
2021/07/21 01:36:00;;;;;;;7.32;3.45;;;;;;;;;;5071433;28;20433;-69
2021/07/21 01:38:34;;;;;;;8.20;3.33;;;;;;;;;;5078481;28;20106;-69
2021/07/21 01:41:08;;;;;;;7.68;3.35;;;;;;;;;;5091433;28;20032;-69
2021/07/21 01:43:35;;;;;;;5.05;3.20;;;;;;;;;;5085848;28;20047;-69
2021/07/21 01:46:02;;;;;;;8.32;3.45;;;;;;;;;;5051655;28;20021;-69
2021/07/21 01:48:34;;;;;;;6.20;3.40;;;;;;;;;;5052124;28;20172;-69
2021/07/21 01:51:01;;;;;;;7.50;4.07;;;;;;;;;;5051841;28;20029;-69
2021/07/21 01:53:32;;;;;;;5.57;3.58;;;;;;;;;;5051832;28;20079;-69
2021/07/21 01:55:57;;;;;;;7.63;3.90;;;;;;;;;;5051664;28;20112;-69
2021/07/21 01:58:29;;;;;;;5.88;3.95;;;;;;;;;;5051172;28;20112;-69
2021/07/21 02:00:55;;;;;;;5.07;3.58;;;;;;;;;;5051545;28;20536;-69
2021/07/21 02:03:22;;;;;;;8.40;4.35;;;;;;;;;;5051675;28;20369;-69
2021/07/21 02:05:53;;;;;;;7.85;4.32;;;;;;;;;;5057142;28;20066;-69
2021/07/21 02:08:21;;;;;;;8.35;4.03;;;;;;;;;;5073435;28;20530;-69
2021/07/21 02:10:47;;;;;;;7.15;4.45;;;;;;;;;;5074717;28;20082;-69
2021/07/21 02:13:16;;;;;;;9.80;5.40;;;;;;;;;;5075282;28;20365;-69
2021/07/21 02:15:43;;;;;;;9.88;4.82;;;;;;;;;;5075641;28;20480;-69
2021/07/21 02:18:09;;;;;;;7.50;4.28;;;;;;;;;;5094889;28;20031;-69
2021/07/21 02:20:37;;;;;;;6.80;3.90;;;;;;;;;;5088075;28;20143;-69
2021/07/21 02:23:03;;;;;;;6.80;4.00;;;;;;;;;;5073545;28;20467;-69
2021/07/21 02:25:29;;;;;;;8.73;4.22;;;;;;;;;;5073846;28;20450;-69
2021/07/21 02:27:57;;;;;;;6.80;3.65;;;;;;;;;;5073944;28;20107;-69
2021/07/21 02:30:23;;;;;;;8.27;3.97;;;;;;;;;;5073740;28;20036;-69
2021/07/21 02:33:10;;;;;;;6.13;4.30;;;;;;;;;;5074685;28;20025;-70
2021/07/21 02:35:36;;;;;;;7.00;4.28;;;;;;;;;;5067990;28;20021;-69
2021/07/21 02:38:03;;;;;;;7.53;3.50;;;;;;;;;;5063765;28;20058;-69
2021/07/21 02:40:29;;;;;;;5.57;3.40;;;;;;;;;;5093917;28;20024;-70
2021/07/21 02:42:54;;;;;;;6.63;3.63;;;;;;;;;;5095135;28;20027;-69
2021/07/21 02:45:20;;;;;;;5.32;3.30;;;;;;;;;;5090183;28;20460;-69
2021/07/21 02:47:46;;;;;;;6.45;3.60;;;;;;;;;;5074310;28;20024;-69
2021/07/21 02:50:16;;;;;;;7.65;3.50;;;;;;;;;;5072531;28;20127;-69
2021/07/21 02:53:13;;;;;;;7.95;3.53;;;;;;;;;;5073698;28;20112;-69
2021/07/21 02:55:45;;;;;;;7.55;3.97;;;;;;;;;;5064172;28;20037;-69
2021/07/21 02:58:23;;;;;;;6.28;3.28;;;;;;;;;;5053332;28;20043;-69
2021/07/21 03:00:51;;;;;;;6.03;3.58;;;;;;;;;;5053340;28;20027;-69
2021/07/21 03:03:19;;;;;;;5.93;3.28;;;;;;;;;;5053239;28;20115;-69
2021/07/21 03:05:46;;;;;;;5.30;3.28;;;;;;;;;;5062265;28;20468;-69
2021/07/21 03:08:13;;;;;;;5.47;3.70;;;;;;;;;;5072941;28;20468;-69
2021/07/21 03:10:40;;;;;;;7.40;4.15;;;;;;;;;;5073240;28;20415;-69
2021/07/21 03:13:09;;;;;;;6.20;3.80;;;;;;;;;;5073115;28;20506;-69
2021/07/21 03:15:40;;;;;;;8.15;4.30;;;;;;;;;;5075695;28;20036;-69
2021/07/21 03:18:11;;;;;;;7.72;4.28;;;;;;;;;;5094080;28;20022;-69
2021/07/21 03:20:40;;;;;;;6.63;3.92;;;;;;;;;;5084547;28;20016;-69
2021/07/21 03:23:07;;;;;;;7.30;4.07;;;;;;;;;;5069779;28;20435;-69
2021/07/21 03:25:33;;;;;;;5.72;3.47;;;;;;;;;;5053591;28;20408;-69
2021/07/21 03:28:01;;;;;;;5.28;3.42;;;;;;;;;;5051772;28;20036;-69
2021/07/21 03:30:28;;;;;;;6.43;3.72;;;;;;;;;;5053207;28;20024;-69
2021/07/21 03:32:55;;;;;;;5.53;3.47;;;;;;;;;;5052926;28;20053;-69
2021/07/21 03:35:25;;;;;;;6.32;3.67;;;;;;;;;;5057110;28;20032;-69
2021/07/21 03:37:50;;;;;;;7.13;3.88;;;;;;;;;;5074844;28;20036;-69
2021/07/21 03:40:18;;;;;;;5.25;3.55;;;;;;;;;;5092999;28;20379;-69
2021/07/21 03:42:45;;;;;;;5.40;3.60;;;;;;;;;;5092886;28;20520;-69
2021/07/21 03:45:13;;;;;;;6.93;3.60;;;;;;;;;;5089013;28;20394;-69
2021/07/21 03:47:43;;;;;;;6.22;3.60;;;;;;;;;;5072815;28;20033;-69
2021/07/21 03:50:10;;;;;;;6.55;3.58;;;;;;;;;;5072784;28;20396;-69
2021/07/21 03:52:38;;;;;;;5.63;3.50;;;;;;;;;;5072496;28;20020;-69
2021/07/21 03:55:05;;;;;;;6.90;3.60;;;;;;;;;;5066594;28;20041;-69
2021/07/21 03:57:31;;;;;;;6.65;3.53;;;;;;;;;;5052274;28;20143;-69
2021/07/21 03:59:57;;;;;;;5.70;3.53;;;;;;;;;;5063886;28;20103;-69
2021/07/21 04:02:24;;;;;;;7.43;3.50;;;;;;;;;;5071513;28;20055;-69
2021/07/21 04:04:50;;;;;;;7.53;4.03;;;;;;;;;;5069379;28;20047;-69
2021/07/21 04:07:19;;;;;;;5.85;3.70;;;;;;;;;;5051566;28;20108;-69
2021/07/21 04:09:47;;;;;;;8.00;4.07;;;;;;;;;;5052116;28;20039;-69
2021/07/21 04:12:17;;;;;;;6.57;4.00;;;;;;;;;;5055869;28;20078;-69
2021/07/21 04:14:46;;;;;;;6.13;3.83;;;;;;;;;;5072129;28;20028;-69
2021/07/21 04:17:12;;;;;;;7.50;3.55;;;;;;;;;;5088205;28;20081;-69
2021/07/21 04:19:41;;;;;;;4.72;3.25;;;;;;;;;;5092698;28;20024;-69
2021/07/21 04:22:07;;;;;;;6.53;3.22;;;;;;;;;;5092588;28;20019;-69
2021/07/21 04:24:34;;;;;;;5.93;3.45;;;;;;;;;;5091829;28;20054;-69
2021/07/21 04:27:03;;;;;;;6.63;3.88;;;;;;;;;;5054811;28;20021;-69
2021/07/21 04:29:32;;;;;;;5.75;3.85;;;;;;;;;;5053786;28;20048;-69
2021/07/21 04:31:59;;;;;;;7.93;4.10;;;;;;;;;;5054079;28;20025;-69
2021/07/21 04:34:25;;;;;;;8.88;4.80;;;;;;;;;;5052521;28;20530;-69
2021/07/21 04:36:51;;;;;;;7.72;4.03;;;;;;;;;;5052279;28;20032;-69
2021/07/21 04:39:19;;;;;;;6.78;3.50;;;;;;;;;;5080812;28;20031;-69
2021/07/21 04:41:47;;;;;;;6.57;4.30;;;;;;;;;;5091714;28;20045;-69
2021/07/21 04:44:13;;;;;;;7.55;4.22;;;;;;;;;;5091598;28;20070;-69
2021/07/21 04:46:39;;;;;;;6.18;3.97;;;;;;;;;;5092612;28;20016;-69
2021/07/21 04:49:09;;;;;;;9.52;4.53;;;;;;;;;;5077763;28;20051;-69
2021/07/21 04:51:36;;;;;;;8.05;4.20;;;;;;;;;;5066805;28;20385;-69
2021/07/21 04:54:06;;;;;;;8.93;5.53;;;;;;;;;;5051810;28;20033;-69
2021/07/21 04:56:32;;;;;;;6.95;4.25;;;;;;;;;;5066345;28;20027;-69
2021/07/21 04:58:58;;;;;;;6.85;4.20;;;;;;;;;;5049983;28;20036;-69
2021/07/21 05:01:24;;;;;;;6.18;4.05;;;;;;;;;;5067912;28;20041;-69
2021/07/21 05:03:49;;;;;;;6.97;3.75;;;;;;;;;;5071836;28;20028;-69
2021/07/21 05:06:15;;;;;;;6.00;3.67;;;;;;;;;;5071825;28;20024;-69
2021/07/21 05:08:40;;;;;;;4.50;3.00;;;;;;;;;;5071726;28;20017;-69
2021/07/21 05:11:06;;;;;;;6.93;3.70;;;;;;;;;;5057108;28;20537;-69
2021/07/21 05:13:36;;;;;;;5.97;2.95;;;;;;;;;;5068306;28;20077;-69
2021/07/21 05:16:03;;;;;;;4.35;2.95;;;;;;;;;;5051988;28;20052;-69
2021/07/21 05:18:28;;;;;;;4.22;3.10;;;;;;;;;;5055389;28;20027;-69
2021/07/21 05:20:53;;;;;;;5.70;3.33;;;;;;;;;;5062079;28;20025;-69
2021/07/21 05:23:19;;;;;;;4.57;2.70;;;;;;;;;;5065735;28;20391;-69
2021/07/21 05:25:44;;;;;;;5.43;2.88;;;;;;;;;;5067109;28;20036;-69
2021/07/21 05:28:10;;;;;;;6.07;2.65;;;;;;;;;;5059692;28;20514;-69
2021/07/21 05:30:36;;;;;;;5.65;3.35;;;;;;;;;;5069038;28;20052;-69
2021/07/21 05:33:03;;;;;;;7.13;2.65;;;;;;;;;;5070596;28;20024;-69
2021/07/21 05:35:28;;;;;;;3.90;2.47;;;;;;;;;;5063455;28;20024;-69
2021/07/21 05:37:56;;;;;;;3.85;2.60;;;;;;;;;;5068357;28;20406;-69
2021/07/21 05:40:21;;;;;;;4.55;2.30;;;;;;;;;;5051719;28;20083;-69
2021/07/21 05:42:47;;;;;;;4.03;2.17;;;;;;;;;;5051898;28;20020;-69
2021/07/21 05:45:12;;;;;;;5.85;2.55;;;;;;;;;;5056583;28;20024;-69
2021/07/21 05:47:38;;;;;;;3.70;2.33;;;;;;;;;;5074637;28;20036;-69
2021/07/21 05:50:05;;;;;;;4.65;2.90;;;;;;;;;;5074392;28;20036;-69
2021/07/21 05:52:30;;;;;;;7.32;2.85;;;;;;;;;;5074873;28;20055;-69
2021/07/21 05:54:56;;;;;;;9.27;2.83;;;;;;;;;;5071168;28;20040;-69
2021/07/21 05:57:21;;;;;;;3.75;2.47;;;;;;;;;;5060180;28;20028;-69
2021/07/21 05:59:47;;;;;;;4.68;3.10;;;;;;;;;;5064909;28;20499;-69
2021/07/21 06:02:12;;;;;;;3.25;1.85;;;;;;;;;;5055452;28;20105;-69
2021/07/21 06:04:38;;;;;;;4.57;2.50;;;;;;;;;;5055806;28;20469;-69
2021/07/21 06:07:06;;;;;;;4.53;2.35;;;;;;;;;;5062787;28;20098;-69
2021/07/21 06:09:33;;;;;;;4.47;2.72;;;;;;;;;;5058595;28;20032;-71
2021/07/21 06:11:58;;;;;;;3.47;2.17;;;;;;;;;;5054842;28;20055;-69
2021/07/21 06:14:25;;;;;;;3.85;2.63;;;;;;;;;;5067855;28;20051;-70
2021/07/21 06:16:51;;;;;;;4.63;2.65;;;;;;;;;;5084778;28;20028;-69
2021/07/21 06:19:16;;;;;;;6.03;2.50;;;;;;;;;;5088248;28;20027;-69
2021/07/21 06:21:42;;;;;;;6.80;2.83;;;;;;;;;;5074601;28;20031;-69
2021/07/21 06:24:07;;;;;;;3.85;2.47;;;;;;;;;;5061806;28;20021;-70
2021/07/21 06:26:33;;;;;;;6.40;2.50;;;;;;;;;;5055387;28;20025;-69
2021/07/21 06:28:58;;;;;;;3.80;2.40;;;;;;;;;;5055294;28;20025;-68
2021/07/21 06:31:24;;;;;;;4.15;2.35;;;;;;;;;;5054094;28;20071;-69
2021/07/21 06:33:49;;;;;;;4.75;2.63;;;;;;;;;;5054243;28;20025;-70
2021/07/21 06:36:15;;;;;;;4.75;2.60;;;;;;;;;;5062782;28;20025;-69
2021/07/21 06:38:41;;;;;;;4.40;2.60;;;;;;;;;;5076870;28;20027;-69
2021/07/21 06:41:06;;;;;;;4.53;2.83;;;;;;;;;;5062596;28;20502;-70
2021/07/21 06:43:32;;;;;;;4.75;2.72;;;;;;;;;;5059914;28;20443;-71
2021/07/21 06:45:58;;;;;;;5.97;2.70;;;;;;;;;;5062546;28;20055;-71
2021/07/21 06:48:24;;;;;;;6.03;2.80;;;;;;;;;;5066119;28;20024;-69
2021/07/21 06:50:50;;;;;;;4.68;2.63;;;;;;;;;;5068899;28;20522;-68
2021/07/21 06:53:16;;;;;;;6.47;2.90;;;;;;;;;;5084342;28;20123;-69
2021/07/21 06:55:41;;;;;;;5.07;2.78;;;;;;;;;;5061627;28;20044;-73
2021/07/21 06:58:08;;;;;;;5.85;2.20;;;;;;;;;;5057352;28;20036;-68
2021/07/21 07:00:34;;;;;;;4.75;2.42;;;;;;;;;;5060440;28;20048;-68
2021/07/21 07:03:00;;;;;;;5.70;2.60;;;;;;;;;;5065765;28;20033;-70
2021/07/21 07:05:26;;;;;;;6.35;2.50;;;;;;;;;;5071378;28;20056;-71
2021/07/21 07:07:52;;;;;;;4.35;2.38;;;;;;;;;;5066590;28;20051;-69
2021/07/21 07:10:18;;;;;;;4.22;2.40;;;;;;;;;;5067857;28;20016;-69
2021/07/21 07:12:45;;;;;;;5.38;2.42;;;;;;;;;;5071883;28;20024;-69
2021/07/21 07:15:11;;;;;;;4.80;2.55;;;;;;;;;;5058865;28;20488;-69
2021/07/21 07:17:37;;;;;;;5.95;2.67;;;;;;;;;;5065765;28;20021;-70
2021/07/21 07:20:04;;;;;;;5.10;2.50;;;;;;;;;;5054450;28;20052;-69
2021/07/21 07:22:29;;;;;;;4.10;2.33;;;;;;;;;;5063950;28;20033;-69
2021/07/21 07:24:55;;;;;;;3.90;2.25;;;;;;;;;;5062733;28;20031;-69
2021/07/21 07:27:20;;;;;;;3.03;2.00;;;;;;;;;;5072245;28;20077;-69
2021/07/21 07:29:46;;;;;;;4.78;1.98;;;;;;;;;;5069131;28;20125;-69
2021/07/21 07:32:12;;;;;;;3.58;2.30;;;;;;;;;;5090284;28;20036;-71
2021/07/21 07:34:38;;;;;;;3.85;2.10;;;;;;;;;;5065984;28;20030;-71
2021/07/21 07:37:04;;;;;;;4.03;2.60;;;;;;;;;;5083609;28;20028;-70
2021/07/21 07:39:29;;;;;;;4.47;2.10;;;;;;;;;;5072957;28;20025;-72
2021/07/21 07:41:58;;;;;;;4.05;2.15;;;;;;;;;;5061073;28;20025;-69
2021/07/21 07:44:24;;;;;;;4.20;2.40;;;;;;;;;;5083939;28;20020;-70
2021/07/21 07:46:50;;;;;;;4.07;2.17;;;;;;;;;;5086678;28;20016;-69
2021/07/21 07:49:15;;;;;;;3.83;2.05;;;;;;;;;;5093002;28;20565;-70
2021/07/21 07:51:41;;;;;;;2.72;1.75;;;;;;;;;;5077420;28;20074;-69
2021/07/21 07:54:06;;;;;;;2.88;1.60;;;;;;;;;;5089488;28;20546;-70
2021/07/21 07:56:33;;;;;;;5.30;2.08;;;;;;;;;;5066232;28;20028;-70
2021/07/21 07:59:02;;;;;;;2.28;1.40;;;;;;;;;;5076583;28;20023;-71
2021/07/21 08:01:28;;;;;;;2.70;1.60;;;;;;;;;;5079882;28;20103;-69
2021/07/21 08:03:54;;;;;;;2.60;1.45;;;;;;;;;;5069868;28;20488;-70
2021/07/21 08:06:19;;;;;;;1.92;1.30;;;;;;;;;;5064431;28;20020;-70
2021/07/21 08:08:45;;;;;;;2.70;1.50;;;;;;;;;;5085449;28;20024;-71
2021/07/21 08:11:12;;;;;;;3.95;1.90;;;;;;;;;;5060434;28;20025;-70
2021/07/21 08:13:39;;;;;;;3.58;1.90;;;;;;;;;;5067225;28;20032;-70
2021/07/21 08:16:05;;;;;;;2.75;1.55;;;;;;;;;;5086627;28;20028;-69
2021/07/21 08:18:31;;;;;;;1.70;1.25;;;;;;;;;;5087681;28;20026;-70
2021/07/21 08:20:56;;;;;;;2.47;1.45;;;;;;;;;;5081977;28;20031;-70
2021/07/21 08:23:22;;;;;;;2.25;1.23;;;;;;;;;;5086317;28;20028;-69
2021/07/21 08:25:48;;;;;;;2.92;1.40;;;;;;;;;;5076532;28;20025;-70
2021/07/21 08:28:17;;;;;;;2.45;1.55;;;;;;;;;;5088760;28;20052;-71
2021/07/21 08:30:47;;;;;;;1.88;1.40;;;;;;;;;;5079181;28;20145;-70
2021/07/21 08:33:13;;;;;;;2.10;1.40;;;;;;;;;;5081020;28;20029;-69
2021/07/21 08:35:38;;;;;;;2.72;1.60;;;;;;;;;;5087020;28;20435;-70
2021/07/21 08:38:08;;;;;;;2.40;1.60;;;;;;;;;;5075250;28;20060;-71
2021/07/21 08:40:35;;;;;;;2.15;1.50;;;;;;;;;;5086881;28;20095;-69
2021/07/21 08:43:00;;;;;;;2.28;1.50;;;;;;;;;;5082194;28;20066;-70
2021/07/21 08:45:26;;;;;;;3.63;1.80;;;;;;;;;;5071901;28;20491;-70
2021/07/21 08:47:53;;;;;;;4.13;2.15;;;;;;;;;;5074216;28;20497;-71
2021/07/21 08:50:19;;;;;;;3.05;1.60;;;;;;;;;;5063236;28;20131;-70
2021/07/21 08:52:45;;;;;;;4.85;1.55;;;;;;;;;;5056426;28;20094;-70
2021/07/21 08:55:13;;;;;;;3.72;1.90;;;;;;;;;;5052057;28;20486;-71
2021/07/21 08:57:39;;;;;;;3.55;1.88;;;;;;;;;;5052311;28;20376;-70
2021/07/21 09:00:12;;;;;;;2.60;1.80;;;;;;;;;;5061209;28;20040;-70
2021/07/21 09:02:38;;;;;;;4.93;1.95;;;;;;;;;;5054391;28;20025;-72
2021/07/21 09:05:06;;;;;;;3.28;1.80;;;;;;;;;;5067591;28;20037;-70
2021/07/21 09:07:37;;;;;;;3.00;1.60;;;;;;;;;;5060354;28;20029;-69
2021/07/21 09:10:22;;;;;;;2.78;1.27;;;;;;;;;;5069424;28;20073;-70
2021/07/21 09:12:50;;;;;;;2.15;1.25;;;;;;;;;;5066021;28;20115;-69
2021/07/21 09:15:21;;;;;;;1.35;1.15;;;;;;;;;;5068037;28;20021;-71
2021/07/21 09:18:08;;;;;;;2.17;1.27;;;;;;;;;;5062984;28;20028;-69
2021/07/21 09:21:03;;;;;;;2.08;1.40;;;;;;;;;;5055702;28;20425;-71
2021/07/21 09:23:46;;;;;;;2.10;1.30;;;;;;;;;;5066244;28;20025;-71
2021/07/21 09:26:18;;;;;;;4.18;1.60;;;;;;;;;;5070991;28;20042;-70
2021/07/21 09:28:45;;;;;;;2.10;1.13;;;;;;;;;;5073856;28;20067;-70
2021/07/21 09:31:34;;;;;;;2.58;1.40;;;;;;;;;;5069098;28;20032;-69
2021/07/21 09:34:11;;;;;;;2.22;1.38;;;;;;;;;;5070948;28;20060;-71
2021/07/21 09:36:36;;;;;;;1.95;1.25;;;;;;;;;;5059833;28;20020;-70
2021/07/21 09:39:03;;;;;;;2.60;1.45;;;;;;;;;;5079467;28;20403;-69
2021/07/21 09:41:29;;;;;;;2.65;1.30;;;;;;;;;;5075830;28;20028;-70
2021/07/21 09:44:04;;;;;;;5.45;1.45;;;;;;;;;;5068424;28;20077;-71
2021/07/21 09:46:32;;;;;;;2.83;1.38;;;;;;;;;;5075439;28;20020;-71
2021/07/21 09:48:58;;;;;;;2.50;1.17;;;;;;;;;;5084632;28;20047;-70
2021/07/21 09:51:31;;;;;;;2.92;1.50;;;;;;;;;;5067891;28;20028;-70
2021/07/21 09:54:12;;;;;;;1.95;1.33;;;;;;;;;;5063466;28;20075;-71
2021/07/21 09:56:38;;;;;;;2.47;1.00;;;;;;;;;;5067132;28;20078;-74
2021/07/21 09:59:20;;;;;;;1.77;1.27;;;;;;;;;;5056848;28;20460;-73
2021/07/21 10:01:45;;;;;;;3.72;1.30;;;;;;;;;;5056079;28;20064;-71
2021/07/21 10:04:11;;;;;;;3.70;1.30;;;;;;;;;;5068256;28;20081;-70
2021/07/21 10:06:40;;;;;;;2.10;1.40;;;;;;;;;;5070987;28;20024;-70
2021/07/21 10:09:07;;;;;;;3.05;1.48;;;;;;;;;;5061399;28;20017;-70
2021/07/21 10:11:40;;;;;;;3.42;1.77;;;;;;;;;;5063688;28;20033;-70
2021/07/21 10:14:14;;;;;;;1.77;1.20;;;;;;;;;;5056549;28;20028;-73
2021/07/21 10:16:48;;;;;;;2.33;1.33;;;;;;;;;;5075509;28;20064;-73
2021/07/21 10:19:15;;;;;;;1.92;1.30;;;;;;;;;;5058312;28;20017;-71
2021/07/21 10:21:46;;;;;;;3.63;1.55;;;;;;;;;;5069811;28;20021;-71
2021/07/21 10:24:13;;;;;;;2.78;1.40;;;;;;;;;;5062719;28;20021;-71
2021/07/21 10:26:40;;;;;;;1.85;1.45;;;;;;;;;;5070835;28;20020;-71
2021/07/21 10:29:07;;;;;;;3.22;1.30;;;;;;;;;;5072026;28;20067;-69
2021/07/21 10:31:33;;;;;;;2.75;1.10;;;;;;;;;;5070749;28;20115;-72
2021/07/21 10:34:03;;;;;;;2.45;1.40;;;;;;;;;;5072908;28;20021;-70
2021/07/21 10:36:31;;;;;;;2.67;1.20;;;;;;;;;;5072548;28;20476;-72
2021/07/21 10:38:59;;;;;;;3.05;1.33;;;;;;;;;;5079521;28;20024;-70
2021/07/21 10:41:28;;;;;;;4.97;1.40;;;;;;;;;;5066861;28;20032;-69
2021/07/21 10:43:56;;;;;;;1.80;1.30;;;;;;;;;;5075396;28;20035;-72
2021/07/21 10:46:32;;;;;;;2.55;1.20;;;;;;;;;;5060032;28;20032;-69
2021/07/21 10:52:31;;;;;;;4.20;1.35;;;;;;;;;;5093651;28;20031;-72
2021/07/21 11:00:39;;;;;;;2.58;1.30;;;;;;;;;;5019685;28;20124;-72
2021/07/21 11:03:33;;;;;;;3.55;1.50;;;;;;;;;;5019603;28;20128;-71
2021/07/21 11:06:00;;;;;;;2.95;1.42;;;;;;;;;;5057943;28;20028;-72
2021/07/21 11:08:27;;;;;;;2.15;1.60;;;;;;;;;;5072735;28;20130;-70
2021/07/21 11:10:55;;;;;;;2.92;1.33;;;;;;;;;;5064278;28;20071;-68
2021/07/21 11:13:30;;;;;;;4.63;1.52;;;;;;;;;;5062647;28;20033;-68
2021/07/21 11:16:07;;;;;;;4.30;1.40;;;;;;;;;;5069784;28;20111;-69
2021/07/21 11:18:35;;;;;;;1.80;1.30;;;;;;;;;;5067918;28;20094;-69
2021/07/21 11:21:05;;;;;;;1.85;1.10;;;;;;;;;;5068199;28;20029;-69
2021/07/21 11:23:59;;;;;;;2.80;1.40;;;;;;;;;;5065303;28;20028;-67
2021/07/21 11:26:34;;;;;;;3.55;1.30;;;;;;;;;;5067888;28;20468;-68
2021/07/21 11:29:24;;;;;;;2.78;1.05;;;;;;;;;;5073674;28;20055;-68
2021/07/21 11:31:49;;;;;;;3.08;1.38;;;;;;;;;;5065399;28;20032;-69
2021/07/21 11:34:36;;;;;;;1.95;1.42;;;;;;;;;;5072423;28;20056;-68
2021/07/21 11:37:09;;;;;;;2.20;1.40;;;;;;;;;;5072695;28;20028;-68
2021/07/21 11:39:54;;;;;;;2.63;1.15;;;;;;;;;;5084010;28;20503;-69
2021/07/21 11:42:40;;;;;;;2.35;1.60;;;;;;;;;;5072416;28;20035;-68
2021/07/21 11:45:06;;;;;;;2.13;1.40;;;;;;;;;;5064903;28;20033;-71
2021/07/21 11:47:34;;;;;;;2.85;1.33;;;;;;;;;;5063800;28;20158;-69
2021/07/21 11:50:02;;;;;;;2.65;1.50;;;;;;;;;;5055817;28;20049;-69
2021/07/21 11:52:28;;;;;;;1.98;1.25;;;;;;;;;;5057291;28;20476;-70
2021/07/21 11:54:54;;;;;;;3.58;1.38;;;;;;;;;;5056527;28;20025;-68
2021/07/21 11:57:25;;;;;;;2.00;1.40;;;;;;;;;;5057136;28;20027;-69
2021/07/21 11:59:54;;;;;;;4.70;1.50;;;;;;;;;;5060639;28;20029;-70
2021/07/21 12:02:27;;;;;;;1.77;1.23;;;;;;;;;;5069192;28;20384;-70
2021/07/21 12:04:56;;;;;;;4.05;1.50;;;;;;;;;;5056688;28;20037;-70
2021/07/21 12:07:23;;;;;;;2.42;1.50;;;;;;;;;;5052053;28;20033;-69
2021/07/21 12:09:53;;;;;;;2.50;1.33;;;;;;;;;;5061882;28;20031;-69
2021/07/21 12:12:26;;;;;;;2.67;1.50;;;;;;;;;;5069531;28;20051;-71
2021/07/21 12:14:55;;;;;;;3.47;1.10;;;;;;;;;;5070118;28;20107;-69
2021/07/21 12:17:24;;;;;;;3.78;1.63;;;;;;;;;;5061778;28;20108;-70
2021/07/21 12:19:59;;;;;;;2.90;1.45;;;;;;;;;;5060251;28;20024;-70
2021/07/21 12:22:28;;;;;;;6.85;1.83;;;;;;;;;;5045813;28;20033;-71
2021/07/21 12:24:56;;;;;;;2.65;1.40;;;;;;;;;;5057543;28;20502;-69
2021/07/21 12:27:29;;;;;;;4.30;1.50;;;;;;;;;;5068795;28;20039;-71
2021/07/21 12:29:57;;;;;;;3.05;1.40;;;;;;;;;;5069400;28;20067;-73
2021/07/21 12:32:25;;;;;;;2.63;1.50;;;;;;;;;;5053143;28;20388;-69
2021/07/21 12:34:54;;;;;;;3.60;1.33;;;;;;;;;;5056318;28;20111;-71
2021/07/21 12:37:23;;;;;;;3.15;1.20;;;;;;;;;;5048786;28;20488;-71
2021/07/21 12:39:49;;;;;;;4.88;1.35;;;;;;;;;;5066748;28;20070;-71
2021/07/21 12:42:24;;;;;;;3.20;1.40;;;;;;;;;;5061968;28;20035;-71
2021/07/21 12:44:58;;;;;;;3.55;1.40;;;;;;;;;;5049541;28;20036;-69
2021/07/21 12:47:29;;;;;;;2.45;1.20;;;;;;;;;;5049685;28;20036;-71
2021/07/21 12:50:27;;;;;;;2.10;1.10;;;;;;;;;;5054477;28;20031;-69
2021/07/21 12:53:00;;;;;;;3.92;1.10;;;;;;;;;;5047789;28;20049;-69
2021/07/21 12:55:38;;;;;;;2.28;1.17;;;;;;;;;;5049406;28;20021;-71
2021/07/21 12:58:13;;;;;;;2.15;1.10;;;;;;;;;;5065381;28;20563;-71
2021/07/21 13:00:45;;;;;;;4.07;1.30;;;;;;;;;;5061248;28;20045;-72
2021/07/21 13:03:15;;;;;;;5.55;1.38;;;;;;;;;;5069230;28;20032;-68
2021/07/21 13:05:56;;;;;;;3.70;1.25;;;;;;;;;;5068661;28;20554;-70
2021/07/21 13:08:26;;;;;;;5.25;1.40;;;;;;;;;;5058636;28;20029;-70
2021/07/21 13:11:12;;;;;;;3.50;1.30;;;;;;;;;;5049074;28;20021;-71
2021/07/21 13:13:42;;;;;;;3.35;1.67;;;;;;;;;;5036762;28;20025;-71
2021/07/21 13:16:11;;;;;;;5.80;1.60;;;;;;;;;;5048679;28;20591;-69
2021/07/21 13:18:45;;;;;;;5.65;1.45;;;;;;;;;;5044127;28;20028;-71
2021/07/21 13:21:29;;;;;;;3.88;1.48;;;;;;;;;;5055403;28;20393;-71
2021/07/21 13:24:18;;;;;;;2.38;1.10;;;;;;;;;;5050342;28;20103;-70
2021/07/21 13:26:57;;;;;;;3.30;1.20;;;;;;;;;;5040135;28;20472;-69
2021/07/21 13:29:24;;;;;;;1.58;1.10;;;;;;;;;;5039568;28;20022;-69
2021/07/21 13:31:50;;;;;;;2.60;1.10;;;;;;;;;;5046640;28;20049;-70
2021/07/21 13:34:30;;;;;;;3.90;1.33;;;;;;;;;;5048194;28;20029;-70
2021/07/21 13:36:57;;;;;;;3.92;1.15;;;;;;;;;;5043216;28;20063;-70
2021/07/21 13:39:24;;;;;;;3.63;1.20;;;;;;;;;;5037269;28;20442;-69
2021/07/21 13:41:53;;;;;;;4.72;1.00;;;;;;;;;;5028160;28;20048;-69
2021/07/21 13:44:32;;;;;;;4.43;1.30;;;;;;;;;;5041038;28;20024;-70
2021/07/21 13:47:02;;;;;;;5.82;1.27;;;;;;;;;;5032627;28;20357;-69
2021/07/21 13:49:35;;;;;;;2.67;1.40;;;;;;;;;;5034673;28;20026;-69
2021/07/21 13:52:06;;;;;;;3.38;1.17;;;;;;;;;;5048323;28;20030;-70
2021/07/21 13:54:36;;;;;;;3.45;1.20;;;;;;;;;;5038185;28;20412;-71
2021/07/21 13:57:04;;;;;;;3.95;1.05;;;;;;;;;;5033360;28;20025;-73
2021/07/21 13:59:30;;;;;;;3.80;1.15;;;;;;;;;;5049452;28;20029;-71
2021/07/21 14:01:57;;;;;;;2.58;1.05;;;;;;;;;;5051183;28;20040;-71
2021/07/21 14:04:24;;;;;;;1.80;0.95;;;;;;;;;;5034287;28;20500;-72
2021/07/21 14:06:51;;;;;;;3.17;1.10;;;;;;;;;;5034450;28;20036;-72
2021/07/21 14:09:18;;;;;;;3.63;1.25;;;;;;;;;;5038103;28;20100;-73
2021/07/21 14:11:44;;;;;;;3.63;0.88;;;;;;;;;;5042216;28;20522;-71
2021/07/21 14:14:11;;;;;;;2.85;1.00;;;;;;;;;;5028819;28;20021;-73
2021/07/21 14:16:37;;;;;;;2.00;0.90;;;;;;;;;;5045110;28;20108;-70
2021/07/21 14:19:04;;;;;;;3.08;1.00;;;;;;;;;;5054362;28;20647;-72
2021/07/21 14:21:30;;;;;;;2.97;1.00;;;;;;;;;;5035648;28;20030;-71
2021/07/21 14:23:57;;;;;;;2.25;1.00;;;;;;;;;;5043151;28;20040;-72
2021/07/21 14:26:25;;;;;;;3.00;0.90;;;;;;;;;;5039241;28;20021;-72
2021/07/21 14:28:50;;;;;;;1.92;0.80;;;;;;;;;;5037536;28;20031;-72
2021/07/21 14:31:16;;;;;;;3.05;0.95;;;;;;;;;;5041114;28;20099;-73
2021/07/21 14:33:42;;;;;;;1.85;0.95;;;;;;;;;;5045572;28;20028;-71
2021/07/21 14:36:08;;;;;;;2.78;0.88;;;;;;;;;;5039236;28;20068;-72
2021/07/21 14:38:35;;;;;;;3.42;1.02;;;;;;;;;;5034764;28;20030;-72
2021/07/21 14:41:03;;;;;;;1.65;1.02;;;;;;;;;;5042347;28;20120;-71
2021/07/21 14:43:30;;;;;;;2.67;1.00;;;;;;;;;;5034891;28;20091;-71
2021/07/21 14:45:55;;;;;;;2.55;0.90;;;;;;;;;;5032484;28;20033;-70
2021/07/21 14:48:21;;;;;;;1.65;1.08;;;;;;;;;;5037936;28;20044;-71
2021/07/21 14:50:46;;;;;;;1.30;1.20;;;;;;;;;;5050813;28;20056;-72
2021/07/21 14:53:11;;;;;;;2.47;1.48;;;;;;;;;;5036804;28;20381;-72
2021/07/21 14:55:37;;;;;;;2.15;1.33;;;;;;;;;;5034236;28;20057;-71
2021/07/21 14:58:03;;;;;;;2.00;1.10;;;;;;;;;;5034809;28;20059;-73
2021/07/21 15:00:29;;;;;;;1.65;0.98;;;;;;;;;;5034288;28;20041;-72
2021/07/21 15:02:56;;;;;;;2.60;1.00;;;;;;;;;;5041193;28;20151;-69
2021/07/21 15:05:22;;;;;;;1.77;1.15;;;;;;;;;;5046163;28;20028;-70